Time;durP1;ratioP1;P1;durP2;ratioP2;P2;SDS_P1;SDS_P2;PMS_P1;PMS_P2;Temp;Humidity;BMP_temperature;BMP_pressure;BME280_temperature;BME280_humidity;BME280_pressure;Samples;Min_cycle;Max_cycle;Signal;HPM_P1;HPM_P2
2023/04/04 04:41:58;;;;;;;;;;;;;;;6.02;100.00;100017.73;111589;1245;25344;-47
2023/04/04 04:44:25;;;;;;;;;;;;;;;6.04;100.00;100021.26;110575;1245;22493;-46
2023/04/04 04:46:53;;;;;;;;;;;;;;;6.07;100.00;100020.59;111179;1245;23109;-46
2023/04/04 04:49:21;;;;;;;;;;;;;;;6.08;100.00;100020.95;110586;1245;24329;-56
2023/04/04 04:51:49;;;;;;;;;;;;;;;6.08;100.00;100023.55;110870;1246;22524;-46
2023/04/04 04:54:16;;;;;;;;;;;;;;;6.05;100.00;100027.84;110410;1245;27263;-45
2023/04/04 04:56:43;;;;;;;;;;;;;;;6.03;100.00;100028.84;110419;1245;26447;-46
2023/04/04 04:59:11;;;;;;;;;;;;;;;6.01;100.00;100029.33;111041;1245;22466;-46
2023/04/04 05:01:41;;;;;;;;;;;;;;;5.99;100.00;100035.20;110964;1245;22582;-46
2023/04/04 05:04:10;;;;;;;;;;;;;;;5.98;100.00;100036.06;111595;1245;25177;-55
2023/04/04 05:06:42;;;;;;;;;;;;;;;5.96;100.00;100032.38;112373;1245;22492;-55
2023/04/04 05:09:13;;;;;;;;;;;;;;;5.97;100.00;100039.15;112283;1245;23309;-53
2023/04/04 05:11:40;;;;;;;;;;;;;;;5.99;100.00;100041.27;113364;1245;22970;-53
2023/04/04 05:14:09;;;;;;;;;;;;;;;6.03;100.00;100043.73;113333;1245;22445;-54
2023/04/04 05:16:40;;;;;;;;;;;;;;;6.06;100.00;100046.73;113338;1245;22376;-54
2023/04/04 05:19:06;;;;;;;;;;;;;;;6.12;100.00;100045.43;113175;1245;22466;-45
2023/04/04 05:21:37;;;;;;;;;;;;;;;6.16;100.00;100043.58;111389;1245;22483;-53
2023/04/04 05:24:07;;;;;;;;;;;;;;;6.20;100.00;100043.45;111848;1245;22557;-54
2023/04/04 05:26:37;;;;;;;;;;;;;;;6.25;100.00;100042.31;113269;1245;22454;-54
2023/04/04 05:29:04;;;;;;;;;;;;;;;6.34;100.00;100042.42;113143;1245;22482;-45
2023/04/04 05:31:32;;;;;;;;;;;;;;;6.38;100.00;100041.45;113232;1245;22503;-45
2023/04/04 05:34:06;;;;;;;;;;;;;;;6.42;100.00;100039.24;112957;1245;23081;-55
2023/04/04 05:36:34;;;;;;;;;;;;;;;6.43;100.00;100035.96;112818;1245;22938;-46
2023/04/04 05:39:07;;;;;;;;;;;;;;;6.45;100.00;100033.23;113021;1245;22394;-46
2023/04/04 05:41:39;;;;;;;;;;;;;;;6.48;100.00;100035.50;112960;1245;22397;-46
2023/04/04 05:44:20;;;;;;;;;;;;;;;6.50;100.00;100033.96;113052;1245;22444;-55
2023/04/04 05:46:48;;;;;;;;;;;;;;;6.55;100.00;100032.48;113228;1245;23182;-55
2023/04/04 05:49:16;;;;;;;;;;;;;;;6.64;100.00;100040.73;112234;1245;22524;-55
2023/04/04 05:51:55;;;;;;;;;;;;;;;6.73;100.00;100037.36;112168;1245;22632;-45
2023/04/04 05:54:25;;;;;;;;;;;;;;;6.81;100.00;100037.27;111666;1245;24113;-46
2023/04/04 05:56:53;;;;;;;;;;;;;;;6.87;100.00;100041.85;111825;1245;22464;-45
2023/04/04 05:59:40;;;;;;;;;;;;;;;6.92;100.00;100049.02;112890;1245;22464;-55
2023/04/04 06:02:12;;;;;;;;;;;;;;;6.96;100.00;100050.63;112915;1245;22337;-55
2023/04/04 06:04:44;;;;;;;;;;;;;;;7.03;100.00;100053.64;112741;1245;22509;-46
2023/04/04 06:07:18;;;;;;;;;;;;;;;7.09;100.00;100051.45;112954;1245;22463;-55
2023/04/04 06:09:45;;;;;;;;;;;;;;;7.12;100.00;100053.20;112693;1245;22496;-46
2023/04/04 06:12:12;;;;;;;;;;;;;;;7.16;100.00;100055.17;113132;1245;22443;-46
2023/04/04 06:14:41;;;;;;;;;;;;;;;7.23;100.00;100058.52;113078;1245;23420;-46
2023/04/04 06:17:09;;;;;;;;;;;;;;;7.26;100.00;100065.67;112458;1245;22787;-45
2023/04/04 06:19:35;;;;;;;;;;;;;;;7.29;100.00;100073.50;113057;1245;22409;-55
2023/04/04 06:22:02;;;;;;;;;;;;;;;7.35;100.00;100074.09;113088;1245;22371;-55
2023/04/04 06:24:32;;;;;;;;;;;;;;;7.41;100.00;100081.60;113140;1245;22621;-46
2023/04/04 06:27:01;;;;;;;;;;;;;;;7.45;100.00;100083.55;112820;1245;22479;-56
2023/04/04 06:29:30;;;;;;;;;;;;;;;7.47;100.00;100073.67;112087;1245;200308;-55
2023/04/04 06:32:00;;;;;;;;;;;;;;;7.52;100.00;100069.38;111346;1245;22508;-45
2023/04/04 06:34:39;;;;;;;;;;;;;;;7.56;100.00;100069.93;112335;1245;22515;-55
2023/04/04 06:37:11;;;;;;;;;;;;;;;7.57;100.00;100073.41;112721;1243;23875;-46
2023/04/04 06:39:48;;;;;;;;;;;;;;;7.57;100.00;100066.98;113102;1245;22506;-44
2023/04/04 06:42:24;;;;;;;;;;;;;;;7.61;100.00;100064.95;111601;1245;22593;-54
2023/04/04 06:44:51;;;;;;;;;;;;;;;7.62;100.00;100065.65;112660;1245;22460;-45
2023/04/04 06:47:20;;;;;;;;;;;;;;;7.64;100.00;100070.18;112332;1245;22517;-55
2023/04/04 06:49:46;;;;;;;;;;;;;;;7.71;100.00;100075.27;113207;1245;22429;-55
2023/04/04 06:52:13;;;;;;;;;;;;;;;7.76;100.00;100073.57;112812;1245;23008;-55
2023/04/04 06:54:40;;;;;;;;;;;;;;;7.81;100.00;100070.31;113223;1245;22379;-55
2023/04/04 06:57:07;;;;;;;;;;;;;;;7.87;100.00;100070.35;113058;1245;22839;-45
2023/04/04 06:59:34;;;;;;;;;;;;;;;7.91;100.00;100066.05;113107;1245;22451;-45
2023/04/04 07:02:01;;;;;;;;;;;;;;;7.94;100.00;100069.18;113159;1245;22960;-45
2023/04/04 07:04:31;;;;;;;;;;;;;;;7.96;100.00;100074.24;113238;1245;23138;-46
2023/04/04 07:07:00;;;;;;;;;;;;;;;7.98;100.00;100073.73;113267;1245;22381;-44
2023/04/04 07:09:28;;;;;;;;;;;;;;;7.98;100.00;100076.52;113281;1242;22354;-45
2023/04/04 07:11:56;;;;;;;;;;;;;;;7.97;100.00;100078.08;113341;1245;22929;-45
2023/04/04 07:14:24;;;;;;;;;;;;;;;7.95;100.00;100080.14;112736;1245;22452;-56
2023/04/04 07:16:53;;;;;;;;;;;;;;;7.95;100.00;100074.41;112484;1245;22459;-46
2023/04/04 07:19:23;;;;;;;;;;;;;;;7.94;100.00;100071.98;111663;1245;22448;-44
2023/04/04 07:21:49;;;;;;;;;;;;;;;7.93;100.00;100066.76;112560;1245;22819;-45
2023/04/04 07:24:18;;;;;;;;;;;;;;;7.95;100.00;100066.43;113130;1245;22882;-45
2023/04/04 07:26:45;;;;;;;;;;;;;;;7.98;100.00;100066.79;113157;1245;23241;-46
2023/04/04 07:29:12;;;;;;;;;;;;;;;7.98;100.00;100068.52;113226;1245;23189;-46
2023/04/04 07:31:39;;;;;;;;;;;;;;;8.06;100.00;100061.80;113180;1245;23008;-45
2023/04/04 07:34:06;;;;;;;;;;;;;;;8.18;100.00;100060.15;113096;1245;22466;-45
2023/04/04 07:36:33;;;;;;;;;;;;;;;8.34;100.00;100060.94;113190;1245;22432;-45
2023/04/04 07:39:00;;;;;;;;;;;;;;;8.51;100.00;100065.73;113231;1245;22350;-45
2023/04/04 07:41:29;;;;;;;;;;;;;;;8.66;100.00;100065.12;112759;1245;22516;-45
2023/04/04 07:43:58;;;;;;;;;;;;;;;8.79;100.00;100067.25;112624;1245;23285;-46
2023/04/04 07:46:26;;;;;;;;;;;;;;;8.93;100.00;100067.64;113233;1245;23222;-44
2023/04/04 07:48:53;;;;;;;;;;;;;;;9.07;100.00;100066.11;113307;1245;22379;-44
2023/04/04 07:51:28;;;;;;;;;;;;;;;9.19;100.00;100066.66;113342;1245;22438;-45
2023/04/04 07:53:55;;;;;;;;;;;;;;;9.34;100.00;100060.59;113286;1245;22404;-45
2023/04/04 07:56:25;;;;;;;;;;;;;;;9.48;100.00;100054.86;112253;1245;22485;-45
2023/04/04 07:58:52;;;;;;;;;;;;;;;9.50;100.00;100053.64;112423;1245;22478;-46
2023/04/04 08:01:19;;;;;;;;;;;;;;;9.50;100.00;100051.91;112511;1245;22451;-47
2023/04/04 08:03:48;;;;;;;;;;;;;;;9.52;100.00;100042.69;111885;1245;22499;-46
2023/04/04 08:06:15;;;;;;;;;;;;;;;9.52;100.00;100037.29;113168;1245;22640;-46
2023/04/04 08:08:43;;;;;;;;;;;;;;;9.41;100.00;100031.36;111754;1245;24748;-55
2023/04/04 08:11:11;;;;;;;;;;;;;;;9.30;100.00;100033.10;113087;1245;22402;-54
2023/04/04 08:13:38;;;;;;;;;;;;;;;9.20;100.00;100032.38;113323;1245;22439;-45
2023/04/04 08:16:05;;;;;;;;;;;;;;;9.14;100.00;100033.23;113258;1245;22887;-55
2023/04/04 08:18:40;;;;;;;;;;;;;;;9.18;100.00;100035.16;113328;1245;22634;-55
2023/04/04 08:21:07;;;;;;;;;;;;;;;9.24;100.00;100036.92;112773;1245;22711;-45
2023/04/04 08:23:36;;;;;;;;;;;;;;;9.16;100.00;100033.41;112987;1245;22391;-45
2023/04/04 08:26:03;;;;;;;;;;;;;;;9.10;100.00;100034.11;113038;1245;23160;-46
2023/04/04 08:28:30;;;;;;;;;;;;;;;9.08;100.00;100036.36;113304;1245;22410;-46
2023/04/04 08:30:58;;;;;;;;;;;;;;;9.14;100.00;100041.26;111601;1245;22554;-48
2023/04/04 08:33:29;;;;;;;;;;;;;;;9.23;100.00;100045.79;112895;1245;22449;-55
2023/04/04 08:36:12;;;;;;;;;;;;;;;9.37;100.00;100042.15;112267;1245;22480;-52
2023/04/04 08:38:42;;;;;;;;;;;;;;;9.49;100.00;100037.29;112642;1245;22497;-45
2023/04/04 08:41:09;;;;;;;;;;;;;;;9.61;100.00;100039.02;113237;1245;22371;-46
2023/04/04 08:43:37;;;;;;;;;;;;;;;9.69;100.00;100043.73;113235;1245;23272;-45
2023/04/04 08:46:03;;;;;;;;;;;;;;;9.74;100.00;100044.42;113247;1245;23205;-45
2023/04/04 08:48:38;;;;;;;;;;;;;;;9.75;100.00;100041.11;113276;1245;22426;-45
2023/04/04 08:51:04;;;;;;;;;;;;;;;9.72;100.00;100043.02;113208;1245;22349;-55
2023/04/04 08:53:33;;;;;;;;;;;;;;;9.70;100.00;100045.81;113195;1245;23306;-54
2023/04/04 08:55:59;;;;;;;;;;;;;;;9.71;100.00;100047.73;113188;1245;22398;-55
2023/04/04 08:58:26;;;;;;;;;;;;;;;9.75;100.00;100046.00;113286;1245;22414;-54
2023/04/04 09:00:53;;;;;;;;;;;;;;;9.75;100.00;100047.03;113272;1245;23115;-55
2023/04/04 09:03:31;;;;;;;;;;;;;;;9.70;100.00;100049.82;113298;1245;22367;-55
2023/04/04 09:06:00;;;;;;;;;;;;;;;9.67;100.00;100052.41;113082;1245;22395;-55
2023/04/04 09:08:27;;;;;;;;;;;;;;;9.67;100.00;100055.73;113219;1245;22403;-54
2023/04/04 09:10:54;;;;;;;;;;;;;;;9.72;100.00;100056.96;113255;1245;23149;-44
2023/04/04 09:13:21;;;;;;;;;;;;;;;9.75;100.00;100059.91;113112;1245;22374;-44
2023/04/04 09:15:53;;;;;;;;;;;;;;;9.75;100.00;100061.48;112594;1245;22492;-53
2023/04/04 09:18:20;;;;;;;;;;;;;;;9.78;100.00;100063.57;113192;1245;22402;-45
2023/04/04 09:20:48;;;;;;;;;;;;;;;9.82;100.00;100058.00;113177;1245;22401;-45
2023/04/04 09:23:16;;;;;;;;;;;;;;;9.86;100.00;100053.80;113151;1245;22424;-45
2023/04/04 09:25:47;;;;;;;;;;;;;;;9.90;99.99;100046.14;113282;1245;23093;-45
2023/04/04 09:28:30;;;;;;;;;;;;;;;9.99;99.98;100045.25;113199;1245;22349;-47
2023/04/04 09:30:58;;;;;;;;;;;;;;;10.07;99.95;100046.27;113283;1245;22436;-45
2023/04/04 09:33:26;;;;;;;;;;;;;;;10.07;99.59;100048.89;113306;1245;23332;-45
2023/04/04 09:36:02;;;;;;;;;;;;;;;10.04;99.05;100050.83;113380;1245;22389;-45
2023/04/04 09:38:30;;;;;;;;;;;;;;;10.00;99.49;100051.01;113084;1245;23239;-45
2023/04/04 09:40:58;;;;;;;;;;;;;;;10.02;99.32;100051.00;113285;1245;22405;-45
2023/04/04 09:43:25;;;;;;;;;;;;;;;10.00;98.46;100046.13;113263;1245;23201;-45
2023/04/04 09:45:53;;;;;;;;;;;;;;;9.94;98.67;100048.94;113178;1245;22820;-45
2023/04/04 09:48:29;;;;;;;;;;;;;;;9.95;99.20;100049.10;113010;1245;23413;-58
2023/04/04 09:50:59;;;;;;;;;;;;;;;9.99;99.59;100046.66;113159;1245;22384;-46
2023/04/04 09:53:26;;;;;;;;;;;;;;;10.02;99.50;100052.73;113248;1245;22984;-54
2023/04/04 09:55:53;;;;;;;;;;;;;;;10.06;99.56;100051.35;113360;1245;22863;-54
2023/04/04 09:58:23;;;;;;;;;;;;;;;10.11;99.48;100046.29;113207;1245;23151;-45
2023/04/04 10:00:51;;;;;;;;;;;;;;;10.13;98.62;100050.10;113208;1245;23064;-45
2023/04/04 10:03:20;;;;;;;;;;;;;;;10.06;98.39;100051.52;113393;1245;22953;-54
2023/04/04 10:05:48;;;;;;;;;;;;;;;10.01;98.52;100051.35;113295;1245;22459;-54
2023/04/04 10:08:16;;;;;;;;;;;;;;;9.95;98.77;100048.92;113382;1245;22391;-46
2023/04/04 10:10:50;;;;;;;;;;;;;;;9.91;98.82;100043.00;113384;1245;22394;-54
2023/04/04 10:13:39;;;;;;;;;;;;;;;9.89;99.62;100037.61;112910;1245;22465;-56
2023/04/04 10:16:07;;;;;;;;;;;;;;;9.93;99.66;100028.20;113279;1245;22453;-55
2023/04/04 10:18:35;;;;;;;;;;;;;;;10.00;99.91;100030.63;112060;1245;23344;-45
2023/04/04 10:21:03;;;;;;;;;;;;;;;10.07;99.62;100022.07;113138;1245;22497;-44
2023/04/04 10:23:44;;;;;;;;;;;;;;;10.10;98.59;100017.71;111647;1245;23212;-47
2023/04/04 10:26:11;;;;;;;;;;;;;;;10.14;99.01;100009.69;111427;1245;23089;-54
2023/04/04 10:28:42;;;;;;;;;;;;;;;10.22;99.62;100006.88;112595;1245;24223;-47
2023/04/04 10:31:20;;;;;;;;;;;;;;;10.33;98.79;100003.20;113132;1245;22500;-54
2023/04/04 10:34:06;;;;;;;;;;;;;;;10.38;98.41;99998.66;113238;1245;23382;-45
2023/04/04 10:36:39;;;;;;;;;;;;;;;10.37;97.94;99994.46;113442;1245;22625;-46
2023/04/04 10:39:10;;;;;;;;;;;;;;;10.34;97.81;99990.83;113142;1245;22453;-55
2023/04/04 10:41:36;;;;;;;;;;;;;;;10.27;97.33;99989.45;113235;1245;22352;-55
2023/04/04 10:44:17;;;;;;;;;;;;;;;10.15;98.33;99989.80;113304;1245;23087;-49
2023/04/04 10:46:45;;;;;;;;;;;;;;;10.03;99.08;99991.23;113206;1245;22353;-55
2023/04/04 10:49:12;;;;;;;;;;;;;;;10.01;99.64;99990.36;113306;1245;23127;-46
2023/04/04 10:51:38;;;;;;;;;;;;;;;10.04;100.00;99994.02;113199;1245;22512;-55
2023/04/04 10:54:21;;;;;;;;;;;;;;;10.15;100.00;99996.27;113346;1245;22865;-54
2023/04/04 10:56:48;;;;;;;;;;;;;;;10.23;99.65;99994.67;113390;1245;22375;-55
2023/04/04 10:59:15;;;;;;;;;;;;;;;10.26;99.43;99991.38;113434;1245;23126;-55
2023/04/04 11:01:56;;;;;;;;;;;;;;;10.27;98.92;99991.55;113420;1245;22857;-55
2023/04/04 11:04:32;;;;;;;;;;;;;;;10.25;98.61;99996.78;113096;1245;23008;-55
2023/04/04 11:07:05;;;;;;;;;;;;;;;10.22;99.78;100004.09;113420;1245;22366;-46
2023/04/04 11:09:50;;;;;;;;;;;;;;;10.28;99.48;100003.05;113458;1245;22376;-46
2023/04/04 11:12:29;;;;;;;;;;;;;;;10.33;98.88;100008.27;113461;1245;22385;-45
2023/04/04 11:14:56;;;;;;;;;;;;;;;10.38;98.94;100013.64;113452;1245;22457;-46
2023/04/04 11:17:42;;;;;;;;;;;;;;;10.48;98.73;100013.96;113472;1245;22369;-46
2023/04/04 11:20:09;;;;;;;;;;;;;;;10.58;98.61;100032.75;111628;1245;22542;-54
2023/04/04 11:22:36;;;;;;;;;;;;;;;10.62;97.48;100040.75;112985;1245;22466;-55
2023/04/04 11:25:22;;;;;;;;;;;;;;;10.56;96.63;100048.80;111599;1245;22506;-44
2023/04/04 11:27:53;;;;;;;;;;;;;;;10.47;97.29;100042.73;111202;1245;23231;-45
2023/04/04 11:30:20;;;;;;;;;;;;;;;10.43;97.26;100035.08;112445;1245;22537;-53
2023/04/04 11:32:48;;;;;;;;;;;;;;;10.43;97.59;100022.51;110343;1245;22471;-55
2023/04/04 11:35:30;;;;;;;;;;;;;;;10.50;97.52;100012.91;111349;1245;23116;-54
2023/04/04 11:37:57;;;;;;;;;;;;;;;10.53;96.39;100018.64;110474;1245;22507;-54
2023/04/04 11:40:38;;;;;;;;;;;;;;;10.50;97.06;100023.71;111583;1245;22730;-55
2023/04/04 11:43:10;;;;;;;;;;;;;;;10.51;97.19;100020.40;111819;1245;25485;-48
2023/04/04 11:45:43;;;;;;;;;;;;;;;10.56;97.89;100018.63;110404;1245;22932;-45
2023/04/04 11:48:16;;;;;;;;;;;;;;;10.59;97.47;100019.30;110311;1245;22481;-45
2023/04/04 11:50:48;;;;;;;;;;;;;;;10.63;97.71;100015.98;111009;1245;24269;-54
2023/04/04 11:53:16;;;;;;;;;;;;;;;10.69;97.63;100020.14;110182;1245;25308;-55
2023/04/04 11:55:45;;;;;;;;;;;;;;;10.72;97.20;100016.64;110267;1245;22475;-55
2023/04/04 11:58:14;;;;;;;;;;;;;;;10.69;96.95;100009.85;110617;1245;25445;-45
2023/04/04 12:00:43;;;;;;;;;;;;;;;10.66;96.72;100005.15;110554;1245;22484;-45
2023/04/04 12:03:11;;;;;;;;;;;;;;;10.60;96.93;100009.55;110212;1245;24207;-54
2023/04/04 12:05:38;;;;;;;;;;;;;;;10.55;97.36;100004.33;111286;1245;22545;-55
2023/04/04 12:08:06;;;;;;;;;;;;;;;10.50;97.30;100008.20;110461;1245;25222;-54
2023/04/04 12:10:33;;;;;;;;;;;;;;;10.50;97.87;100012.20;110477;1245;22505;-53
2023/04/04 12:13:00;;;;;;;;;;;;;;;10.53;98.44;100016.37;110455;1245;22512;-53
2023/04/04 12:15:28;;;;;;;;;;;;;;;10.55;98.48;100017.77;110782;1245;25311;-46
2023/04/04 12:17:55;;;;;;;;;;;;;;;10.58;98.15;100023.15;110386;1245;24204;-55
2023/04/04 12:20:23;;;;;;;;;;;;;;;10.60;98.12;100022.78;110529;1245;26502;-46
2023/04/04 12:22:50;;;;;;;;;;;;;;;10.62;98.32;100019.48;111546;1245;22476;-55
2023/04/04 12:25:18;;;;;;;;;;;;;;;10.66;98.18;100015.61;110562;1245;22493;-56
2023/04/04 12:27:49;;;;;;;;;;;;;;;10.70;97.97;100008.98;110763;1245;22688;-55
2023/04/04 12:30:16;;;;;;;;;;;;;;;10.75;97.61;100008.24;110340;1245;22679;-55
2023/04/04 12:32:44;;;;;;;;;;;;;;;10.84;96.85;100001.21;110619;1245;22520;-54
2023/04/04 12:35:12;;;;;;;;;;;;;;;10.93;95.81;99995.92;111023;1245;22498;-46
2023/04/04 12:37:53;;;;;;;;;;;;;;;10.98;94.89;99987.70;111295;1245;24329;-46
2023/04/04 12:40:20;;;;;;;;;;;;;;;11.02;93.92;99980.86;110791;1245;24195;-46
2023/04/04 12:42:48;;;;;;;;;;;;;;;11.04;93.56;99978.05;110534;1245;24185;-46
2023/04/04 12:45:15;;;;;;;;;;;;;;;11.01;94.00;99982.44;110463;1245;24194;-55
2023/04/04 12:47:54;;;;;;;;;;;;;;;10.96;94.42;99985.62;110202;1245;25235;-45
2023/04/04 12:50:22;;;;;;;;;;;;;;;10.89;94.71;99982.52;110472;1245;26453;-45
2023/04/04 12:52:50;;;;;;;;;;;;;;;10.83;95.36;99979.08;109993;1245;22478;-54
2023/04/04 12:55:19;;;;;;;;;;;;;;;10.76;96.12;99973.18;110649;1245;22485;-45
2023/04/04 12:57:47;;;;;;;;;;;;;;;10.66;96.59;99969.21;110727;1245;22483;-45
2023/04/04 13:00:14;;;;;;;;;;;;;;;10.58;96.84;99964.39;113505;1245;22397;-55
2023/04/04 13:02:45;;;;;;;;;;;;;;;10.48;97.19;99959.20;110249;1245;22590;-55
2023/04/04 13:05:13;;;;;;;;;;;;;;;10.39;98.06;99963.09;110919;1245;22506;-45
2023/04/04 13:07:43;;;;;;;;;;;;;;;10.31;98.37;99963.82;112237;1245;25419;-46
2023/04/04 13:10:13;;;;;;;;;;;;;;;10.22;99.07;99958.25;110385;1245;24172;-53
2023/04/04 13:12:57;;;;;;;;;;;;;;;10.15;99.68;99954.60;110237;1245;22482;-54
2023/04/04 13:15:43;;;;;;;;;;;;;;;10.10;99.82;99943.47;110654;1245;22500;-54
2023/04/04 13:18:14;;;;;;;;;;;;;;;10.05;99.98;99932.51;110723;1245;24140;-56
2023/04/04 13:20:41;;;;;;;;;;;;;;;10.04;100.00;99926.77;110708;1245;24185;-54
2023/04/04 13:23:08;;;;;;;;;;;;;;;10.02;100.00;99924.67;110458;1245;22505;-46
2023/04/04 13:25:34;;;;;;;;;;;;;;;9.98;100.00;99909.89;110368;1245;26584;-47
2023/04/04 13:28:01;;;;;;;;;;;;;;;9.92;100.00;99901.72;111085;1245;22496;-55
2023/04/04 13:30:28;;;;;;;;;;;;;;;9.83;100.00;99897.56;110367;1245;22499;-47
2023/04/04 13:32:55;;;;;;;;;;;;;;;9.75;100.00;99893.94;110704;1245;22495;-54
2023/04/04 13:35:24;;;;;;;;;;;;;;;9.68;100.00;99893.25;110948;1245;24184;-45
2023/04/04 13:37:55;;;;;;;;;;;;;;;9.63;100.00;99892.58;110386;1245;22475;-45
2023/04/04 13:40:21;;;;;;;;;;;;;;;9.58;100.00;99886.84;110572;1245;26511;-46
2023/04/04 13:42:49;;;;;;;;;;;;;;;9.51;100.00;99881.80;110759;1245;22462;-45
2023/04/04 13:45:16;;;;;;;;;;;;;;;9.43;100.00;99877.64;110782;1245;23284;-45
2023/04/04 13:47:42;;;;;;;;;;;;;;;9.34;100.00;99870.88;110617;1245;22475;-46
2023/04/04 13:50:09;;;;;;;;;;;;;;;9.25;100.00;99864.28;111810;1245;22459;-55
2023/04/04 13:52:36;;;;;;;;;;;;;;;9.19;100.00;99863.59;112746;1245;25139;-45
2023/04/04 13:55:04;;;;;;;;;;;;;;;9.15;100.00;99862.89;110861;1245;23463;-55
2023/04/04 13:57:32;;;;;;;;;;;;;;;9.12;100.00;99870.39;110667;1245;22508;-54
2023/04/04 13:59:58;;;;;;;;;;;;;;;9.10;100.00;99871.26;110772;1245;22465;-46
2023/04/04 14:02:26;;;;;;;;;;;;;;;9.08;100.00;99868.13;112612;1245;22435;-47
2023/04/04 14:04:52;;;;;;;;;;;;;;;9.02;100.00;99864.30;111900;1245;22495;-46
2023/04/04 14:07:19;;;;;;;;;;;;;;;8.95;100.00;99869.00;110724;1245;23181;-57
2023/04/04 14:09:46;;;;;;;;;;;;;;;8.90;100.00;99877.70;110341;1245;25284;-55
2023/04/04 14:12:13;;;;;;;;;;;;;;;8.86;100.00;99882.73;110563;1245;22462;-46
2023/04/04 14:14:45;;;;;;;;;;;;;;;8.83;100.00;99886.91;110196;1245;22482;-45
2023/04/04 14:17:13;;;;;;;;;;;;;;;8.81;100.00;99890.91;110603;1245;22507;-56
2023/04/04 14:19:41;;;;;;;;;;;;;;;8.80;100.00;99887.77;110590;1245;22487;-53
2023/04/04 14:22:08;;;;;;;;;;;;;;;8.77;100.00;99885.52;110107;1245;22503;-54
2023/04/04 14:24:38;;;;;;;;;;;;;;;8.73;100.00;99890.38;110438;1245;22489;-55
